createdAt,value
2019-05-17T00:01:37.967Z,82
2019-05-17T00:07:10.890Z,82
2019-05-17T00:12:43.798Z,82
2019-05-17T00:18:17.193Z,82
2019-05-17T00:23:49.592Z,82
2019-05-17T00:29:22.515Z,81
2019-05-17T00:34:56.352Z,81
2019-05-17T00:40:28.485Z,81
2019-05-17T00:46:01.387Z,82
2019-05-17T00:51:36.693Z,82
2019-05-17T00:57:07.577Z,82
2019-05-17T01:02:40.208Z,80
2019-05-17T01:08:13.316Z,82
2019-05-17T01:13:46.649Z,83
2019-05-17T01:19:17.546Z,83
2019-05-17T01:24:49.590Z,85
2019-05-17T01:30:21.589Z,86
2019-05-17T01:35:53.627Z,86
2019-05-17T01:41:26.628Z,85
2019-05-17T01:46:57.471Z,85
2019-05-17T01:52:29.470Z,86
2019-05-17T01:58:01.405Z,86
2019-05-17T02:03:33.302Z,87
2019-05-17T02:09:06.304Z,86
2019-05-17T02:14:37.484Z,86
2019-05-17T02:20:09.172Z,85
2019-05-17T02:25:41.076Z,85
2019-05-17T02:31:13.403Z,86
2019-05-17T02:36:44.973Z,85
2019-05-17T02:42:16.863Z,85
2019-05-17T02:47:48.777Z,85
2019-05-17T02:53:22.923Z,86
2019-05-17T02:58:53.275Z,86
2019-05-17T03:04:24.508Z,85
2019-05-17T03:10:12.040Z,85
2019-05-17T03:15:28.405Z,85
2019-05-17T03:21:03.667Z,87
2019-05-17T03:26:32.870Z,86
2019-05-17T03:32:08.264Z,87
2019-05-17T03:37:37.774Z,89
2019-05-17T03:43:08.154Z,88
2019-05-17T03:48:43.269Z,90
2019-05-17T03:54:13.738Z,91
2019-05-17T03:59:44.260Z,91
2019-05-17T04:05:15.640Z,90
2019-05-17T04:10:47.636Z,89
2019-05-17T04:16:19.350Z,88
2019-05-17T04:21:53.608Z,87
2019-05-17T04:27:23.298Z,88
2019-05-17T04:32:55.232Z,89
2019-05-17T04:38:27.328Z,90
2019-05-17T04:44:02.398Z,91
2019-05-17T04:49:33.025Z,91
2019-05-17T04:55:04.238Z,92
2019-05-17T05:00:35.587Z,90
2019-05-17T05:06:07.803Z,89
2019-05-17T05:11:53.064Z,90
2019-05-17T05:17:12.825Z,91
2019-05-17T05:22:44.725Z,90
2019-05-17T05:28:17.074Z,90
2019-05-17T05:33:49.388Z,89
2019-05-17T05:39:22.808Z,89
2019-05-17T05:44:55.502Z,88
2019-05-17T05:50:26.804Z,87
2019-05-17T05:55:59.393Z,86
2019-05-17T06:01:32.545Z,85
2019-05-17T06:07:04.531Z,87
2019-05-17T06:12:37.171Z,86
2019-05-17T06:18:11.950Z,85
2019-05-17T06:23:43.327Z,84
2019-05-17T06:29:17.060Z,84
2019-05-17T06:34:51.437Z,85
2019-05-17T06:40:24.348Z,85
2019-05-17T06:45:57.952Z,85
2019-05-17T06:51:31.707Z,84
2019-05-17T06:57:05.062Z,83
2019-05-17T07:02:40.173Z,83
2019-05-17T07:08:12.426Z,82
2019-05-17T07:13:46.120Z,82
2019-05-17T07:19:19.840Z,82
2019-05-17T07:24:53.640Z,81
2019-05-17T07:30:27.846Z,81
2019-05-17T07:36:01.169Z,81
2019-05-17T07:41:34.974Z,80
2019-05-17T07:47:09.698Z,80
2019-05-17T07:52:42.503Z,78
2019-05-17T07:58:16.529Z,78
2019-05-17T08:03:50.550Z,75
2019-05-17T08:09:24.908Z,76
2019-05-17T08:14:59.806Z,77
2019-05-17T08:20:31.460Z,75
2019-05-17T08:26:04.782Z,75
2019-05-17T08:31:40.173Z,74
2019-05-17T08:37:11.477Z,72
2019-05-17T08:42:44.899Z,72
2019-05-17T08:53:54.083Z,69
2019-05-17T08:59:29.610Z,69
2019-05-17T09:10:40.703Z,71
2019-05-17T09:21:50.286Z,69
2019-05-17T09:33:00.252Z,71
2019-05-17T09:38:32.917Z,71
2019-05-17T09:49:42.599Z,71
2019-05-17T10:00:53.529Z,69
2019-05-17T10:12:04.150Z,68
2019-05-17T10:17:39.027Z,67
2019-05-17T10:23:13.329Z,66
2019-05-17T10:28:47.386Z,66
2019-05-17T10:34:22.135Z,66
2019-05-17T10:39:57.007Z,66
2019-05-17T10:45:31.296Z,66
2019-05-17T10:51:06.065Z,66
2019-05-17T10:56:40.698Z,65
2019-05-17T11:02:15.069Z,66
2019-05-17T11:07:50.367Z,65
2019-05-17T11:13:23.646Z,65
2019-05-17T11:18:57.993Z,63
2019-05-17T11:24:32.287Z,59
2019-05-17T11:30:06.523Z,63
2019-05-17T11:35:40.831Z,60
2019-05-17T11:41:20.890Z,60
2019-05-17T11:46:49.453Z,60
2019-05-17T11:52:23.778Z,60
2019-05-17T11:57:58.104Z,58
2019-05-17T12:03:32.480Z,60
2019-05-17T12:09:07.551Z,61
2019-05-17T12:14:42.679Z,64
2019-05-17T12:20:17.756Z,63
2019-05-17T12:25:52.889Z,63
2019-05-17T12:31:28.056Z,63
2019-05-17T12:37:03.029Z,60
2019-05-17T12:42:37.553Z,60
2019-05-17T12:48:12.685Z,59
2019-05-17T12:53:47.902Z,58
2019-05-17T12:59:22.822Z,58
2019-05-17T13:04:57.854Z,58
2019-05-17T13:10:34.158Z,55
2019-05-17T13:16:17.203Z,56
2019-05-17T13:21:43.246Z,53
2019-05-17T13:27:18.307Z,54
2019-05-17T13:32:53.439Z,53
2019-05-17T13:38:28.510Z,52
2019-05-17T13:44:03.507Z,53
2019-05-17T13:49:38.513Z,56
2019-05-17T13:55:14.157Z,59
2019-05-17T14:00:49.580Z,61
2019-05-17T14:06:24.508Z,61
2019-05-17T14:11:59.656Z,61
2019-05-17T14:17:34.408Z,61
2019-05-17T14:23:09.347Z,61
2019-05-17T14:28:44.323Z,59
2019-05-17T14:34:19.708Z,58
2019-05-17T14:39:54.007Z,58
2019-05-17T14:45:28.851Z,58
2019-05-17T14:51:03.719Z,61
2019-05-17T14:56:38.494Z,62
2019-05-17T15:02:13.344Z,65
2019-05-17T15:07:47.948Z,66
2019-05-17T15:13:22.552Z,66
2019-05-17T15:18:57.177Z,66
2019-05-17T15:24:31.825Z,67
2019-05-17T15:30:10.764Z,66
2019-05-17T15:35:45.300Z,66
2019-05-17T15:41:19.716Z,67
2019-05-17T15:46:54.179Z,66
2019-05-17T15:52:28.709Z,65
2019-05-17T15:58:03.272Z,65
2019-05-17T16:03:37.726Z,66
2019-05-17T16:09:12.177Z,64
2019-05-17T16:14:46.602Z,63
2019-05-17T16:20:21.007Z,65
2019-05-17T16:25:55.318Z,64
2019-05-17T16:31:29.535Z,63
2019-05-17T16:37:03.765Z,62
2019-05-17T16:42:37.861Z,62
2019-05-17T16:48:16.432Z,62
2019-05-17T16:53:50.542Z,63
2019-05-17T16:59:24.623Z,66
2019-05-17T17:04:58.583Z,67
2019-05-17T17:10:32.538Z,68
2019-05-17T17:16:06.453Z,80
2019-05-17T17:21:40.301Z,81
2019-05-17T17:27:14.050Z,84
2019-05-17T17:32:47.768Z,84
2019-05-17T17:38:21.532Z,86
2019-05-17T17:43:58.349Z,86
2019-05-17T17:49:29.103Z,87
2019-05-17T17:55:02.754Z,88
2019-05-17T18:00:36.273Z,87
2019-05-17T18:06:09.096Z,87
2019-05-17T18:11:41.927Z,87
2019-05-17T18:17:14.793Z,88
2019-05-17T18:22:48.500Z,89
2019-05-17T18:28:22.025Z,90
2019-05-17T18:33:54.799Z,91
2019-05-17T18:39:27.920Z,87
2019-05-17T18:45:01.461Z,87
2019-05-17T18:50:34.692Z,88
2019-05-17T18:56:07.957Z,89
2019-05-17T19:01:40.771Z,89
2019-05-17T19:07:13.435Z,90
2019-05-17T19:12:46.256Z,90
2019-05-17T19:18:18.931Z,89
2019-05-17T19:23:51.631Z,90
2019-05-17T19:29:24.350Z,90
2019-05-17T19:34:57.104Z,90
2019-05-17T19:40:29.831Z,90
2019-05-17T19:46:02.571Z,88
2019-05-17T19:51:35.257Z,89
2019-05-17T19:57:08.018Z,90
2019-05-17T20:02:40.777Z,91
2019-05-17T20:08:13.869Z,94
2019-05-17T20:13:46.523Z,93
2019-05-17T20:19:19.232Z,93
2019-05-17T20:24:51.890Z,93
2019-05-17T20:30:24.496Z,94
2019-05-17T20:35:57.142Z,93
2019-05-17T20:41:29.856Z,92
2019-05-17T20:47:02.509Z,93
2019-05-17T20:52:35.187Z,93
2019-05-17T20:58:07.848Z,94
2019-05-17T21:03:40.489Z,95
2019-05-17T21:09:13.091Z,94
2019-05-17T21:14:45.809Z,94
2019-05-17T21:20:18.453Z,93
2019-05-17T21:25:51.118Z,93
2019-05-17T21:31:23.706Z,93
2019-05-17T21:36:56.332Z,93
2019-05-17T21:42:29.050Z,93
2019-05-17T21:48:01.674Z,93
2019-05-17T21:53:34.284Z,93
2019-05-17T21:59:07.028Z,93
2019-05-17T22:04:39.640Z,94
2019-05-17T22:10:12.276Z,94
2019-05-17T22:15:46.647Z,95
2019-05-17T22:21:17.545Z,95
2019-05-17T22:26:50.138Z,96
2019-05-17T22:32:22.763Z,96
2019-05-17T22:37:55.430Z,97
2019-05-17T22:43:28.029Z,97
2019-05-17T22:49:00.637Z,97
2019-05-17T22:54:33.179Z,98
2019-05-17T23:00:05.813Z,98
2019-05-17T23:05:38.422Z,98
2019-05-17T23:11:11.033Z,98
2019-05-17T23:16:51.371Z,98
2019-05-17T23:22:16.246Z,98
2019-05-17T23:27:48.830Z,98
2019-05-17T23:33:21.490Z,98
2019-05-17T23:38:53.991Z,98
2019-05-17T23:44:26.608Z,98
2019-05-17T23:49:59.106Z,98
2019-05-17T23:55:31.642Z,98
